createdAt,value
2023-05-05T00:03:00.897Z,77.87
2023-05-05T00:06:07.366Z,77.16
2023-05-05T00:09:22.014Z,79.82
2023-05-05T00:12:31.273Z,81.95
2023-05-05T00:15:39.559Z,81.87
2023-05-05T00:18:52.490Z,81.90
2023-05-05T00:21:56.540Z,82.30
2023-05-05T00:25:02.057Z,85.05
2023-05-05T00:28:06.428Z,85.63
2023-05-05T00:31:17.659Z,86.44
2023-05-05T00:34:23.281Z,86.99
2023-05-05T00:37:36.101Z,86.54
2023-05-05T00:40:44.184Z,87.17
2023-05-05T00:43:49.946Z,87.81
2023-05-05T00:46:54.080Z,88.52
2023-05-05T00:49:56.863Z,89.00
2023-05-05T00:53:02.832Z,91.60
2023-05-05T00:56:08.781Z,93.31
2023-05-05T00:59:13.854Z,91.99
2023-05-05T01:02:22.541Z,91.36
2023-05-05T01:05:36.846Z,93.63
2023-05-05T01:09:03.112Z,93.36
2023-05-05T01:12:24.466Z,93.74
2023-05-05T01:15:29.686Z,93.24
2023-05-05T01:18:57.286Z,94.70
2023-05-05T01:22:03.489Z,96.52
2023-05-05T01:25:24.809Z,97.19
2023-05-05T01:28:28.775Z,96.74
2023-05-05T01:31:39.534Z,96.28
2023-05-05T01:34:45.563Z,95.29
2023-05-05T01:38:00.856Z,94.54
2023-05-05T01:41:18.907Z,95.50
2023-05-05T01:44:24.958Z,96.07
2023-05-05T01:47:29.566Z,97.80
2023-05-05T01:50:32.347Z,97.66
2023-05-05T01:53:36.231Z,98.94
2023-05-05T01:56:42.377Z,97.58
2023-05-05T01:59:45.417Z,97.62
2023-05-05T02:02:50.482Z,97.35
2023-05-05T02:05:55.550Z,97.56
2023-05-05T02:08:59.691Z,97.68
2023-05-05T02:12:04.891Z,97.19
2023-05-05T02:15:11.666Z,98.69
2023-05-05T02:18:14.940Z,98.33
2023-05-05T02:21:24.496Z,98.63
2023-05-05T02:24:27.695Z,98.62
2023-05-05T02:27:32.638Z,99.83
2023-05-05T02:30:37.393Z,99.73
2023-05-05T02:33:41.278Z,100.00
2023-05-05T02:36:46.423Z,100.00
2023-05-05T02:39:59.981Z,100.00
2023-05-05T02:43:07.516Z,100.00
2023-05-05T02:46:11.559Z,100.00
2023-05-05T02:49:24.467Z,100.00
2023-05-05T02:52:27.797Z,100.00
2023-05-05T02:55:42.174Z,100.00
2023-05-05T02:59:08.635Z,100.00
2023-05-05T03:02:42.267Z,100.00
2023-05-05T03:06:06.104Z,100.00
2023-05-05T03:09:46.084Z,100.00
2023-05-05T03:13:12.107Z,100.00
2023-05-05T03:16:19.461Z,100.00
2023-05-05T03:19:42.814Z,100.00
2023-05-05T03:22:57.315Z,100.00
2023-05-05T03:26:39.685Z,100.00
2023-05-05T03:33:28.207Z,100.00
2023-05-05T03:36:35.013Z,100.00
2023-05-05T03:39:44.491Z,100.00
2023-05-05T03:43:02.757Z,100.00
2023-05-05T03:46:10.309Z,100.00
2023-05-05T03:49:21.700Z,100.00
2023-05-05T03:52:27.917Z,100.00
2023-05-05T03:55:44.815Z,100.00
2023-05-05T03:59:01.551Z,100.00
2023-05-05T04:02:09.245Z,100.00
2023-05-05T04:05:20.898Z,100.00
2023-05-05T04:08:44.551Z,100.00
2023-05-05T04:11:56.622Z,100.00
2023-05-05T04:15:11.499Z,100.00
2023-05-05T04:18:24.867Z,100.00
2023-05-05T04:28:12.554Z,100.00
2023-05-05T04:31:15.608Z,100.00
2023-05-05T04:34:19.121Z,100.00
2023-05-05T04:37:22.153Z,100.00
2023-05-05T04:40:26.788Z,100.00
2023-05-05T04:43:32.060Z,99.98
2023-05-05T04:46:36.153Z,96.52
2023-05-05T04:49:43.266Z,92.75
2023-05-05T04:52:50.251Z,92.51
2023-05-05T04:56:01.607Z,91.07
2023-05-05T04:59:11.840Z,94.06
2023-05-05T05:02:16.123Z,90.07
2023-05-05T05:05:19.668Z,90.38
2023-05-05T05:08:23.075Z,86.67
2023-05-05T05:11:27.145Z,85.03
2023-05-05T05:14:30.244Z,80.10
2023-05-05T05:17:36.790Z,78.75
2023-05-05T05:20:41.641Z,75.96
2023-05-05T05:23:51.341Z,73.77
2023-05-05T05:26:54.974Z,76.04
2023-05-05T05:29:58.669Z,72.84
2023-05-05T05:33:02.573Z,71.44
2023-05-05T05:36:05.307Z,68.02
2023-05-05T05:39:08.353Z,63.06
2023-05-05T05:42:14.020Z,57.66
2023-05-05T05:45:16.809Z,57.76
2023-05-05T05:48:20.686Z,60.50
2023-05-05T05:51:23.552Z,55.77
2023-05-05T05:54:26.248Z,59.35
2023-05-05T05:57:35.346Z,60.18
2023-05-05T06:00:38.240Z,59.49
2023-05-05T06:03:41.268Z,56.46
2023-05-05T06:06:48.587Z,52.93
2023-05-05T06:09:51.784Z,51.87
2023-05-05T06:12:54.628Z,52.50
2023-05-05T06:16:00.265Z,53.16
2023-05-05T06:19:04.749Z,50.93
2023-05-05T06:22:13.846Z,51.62
2023-05-05T06:25:17.624Z,53.66
2023-05-05T06:28:25.942Z,55.02
2023-05-05T06:31:29.688Z,56.54
2023-05-05T06:34:35.376Z,57.60
2023-05-05T06:37:44.257Z,55.66
2023-05-05T06:57:56.905Z,57.00
2023-05-05T07:01:00.374Z,55.95
2023-05-05T07:04:02.847Z,54.53
2023-05-05T07:07:08.594Z,57.51
2023-05-05T07:10:15.084Z,55.19
2023-05-05T07:13:18.033Z,49.96
2023-05-05T07:16:21.267Z,43.73
2023-05-05T07:19:26.012Z,43.87
2023-05-05T07:22:29.395Z,42.01
2023-05-05T07:25:33.273Z,38.46
2023-05-05T07:28:36.348Z,33.19
2023-05-05T07:31:39.123Z,32.62
2023-05-05T07:34:41.682Z,30.44
2023-05-05T07:37:52.048Z,32.94
2023-05-05T07:40:56.270Z,33.15
2023-05-05T07:44:00.830Z,30.75
2023-05-05T07:47:03.874Z,30.00
2023-05-05T07:50:09.975Z,28.59
2023-05-05T08:00:41.211Z,27.74
2023-05-05T08:04:05.788Z,27.48
2023-05-05T08:10:35.181Z,30.59
2023-05-05T08:13:41.625Z,35.77
2023-05-05T08:16:45.331Z,35.46
2023-05-05T08:19:49.181Z,38.23
2023-05-05T08:22:54.221Z,38.32
2023-05-05T08:26:11.172Z,42.90
2023-05-05T08:29:20.513Z,45.62
2023-05-05T08:32:29.840Z,47.73
2023-05-05T08:35:36.476Z,45.91
2023-05-05T08:38:43.015Z,45.27
2023-05-05T08:41:48.322Z,46.25
2023-05-05T08:44:51.625Z,48.06
2023-05-05T08:47:57.628Z,49.94
2023-05-05T08:51:05.241Z,47.36
2023-05-05T08:54:21.964Z,45.51
2023-05-05T08:57:43.021Z,47.61
2023-05-05T09:00:57.011Z,47.28
2023-05-05T09:04:18.259Z,47.43
2023-05-05T09:07:25.727Z,47.07
2023-05-05T09:10:35.537Z,44.69
2023-05-05T09:13:39.614Z,45.68
2023-05-05T09:16:47.000Z,48.01
2023-05-05T09:20:36.708Z,48.75
2023-05-05T09:23:39.784Z,48.40
2023-05-05T09:26:48.144Z,45.47
2023-05-05T09:30:00.157Z,48.80
2023-05-05T09:33:10.032Z,47.13
2023-05-05T09:36:20.114Z,45.47
2023-05-05T09:39:23.890Z,46.06
2023-05-05T09:42:48.719Z,45.69
2023-05-05T09:45:52.286Z,46.86
2023-05-05T09:49:12.115Z,45.13
2023-05-05T10:16:25.187Z,43.20
2023-05-05T10:19:33.141Z,42.65
2023-05-05T10:22:36.636Z,42.76
2023-05-05T10:25:43.422Z,39.05
2023-05-05T10:28:57.134Z,40.11
2023-05-05T10:32:21.501Z,41.33
2023-05-05T10:35:29.158Z,39.38
2023-05-05T10:38:31.947Z,41.75
2023-05-05T10:41:35.274Z,43.01
2023-05-05T10:44:39.157Z,40.91
2023-05-05T10:47:50.412Z,41.86
2023-05-05T10:51:38.687Z,40.13
2023-05-05T10:55:08.099Z,38.31
2023-05-05T10:58:43.682Z,37.06
2023-05-05T11:01:54.469Z,35.61
2023-05-05T11:05:21.725Z,37.40
2023-05-05T11:08:28.870Z,37.13
2023-05-05T11:12:06.196Z,37.63
2023-05-05T11:15:27.470Z,37.52
2023-05-05T11:18:36.146Z,38.53
2023-05-05T11:21:59.693Z,38.43
2023-05-05T11:25:22.527Z,35.99
2023-05-05T11:28:30.366Z,37.48
2023-05-05T11:31:34.963Z,36.75
2023-05-05T11:34:48.414Z,35.45
2023-05-05T11:38:03.183Z,36.80
2023-05-05T11:41:26.307Z,34.03
2023-05-05T11:44:35.710Z,35.20
2023-05-05T11:47:38.806Z,35.13
2023-05-05T11:50:41.673Z,35.46
2023-05-05T11:53:45.503Z,36.07
2023-05-05T11:57:00.212Z,37.58
2023-05-05T12:00:05.113Z,37.97
2023-05-05T12:03:10.068Z,37.22
2023-05-05T12:06:13.544Z,36.10
2023-05-05T12:09:16.420Z,35.09
2023-05-05T12:12:20.203Z,35.00
2023-05-05T12:15:29.829Z,32.13
2023-05-05T12:18:32.730Z,32.35
2023-05-05T12:21:36.355Z,33.44
2023-05-05T12:24:41.912Z,33.16
2023-05-05T12:27:54.716Z,33.66
2023-05-05T12:31:03.596Z,34.69
2023-05-05T12:34:07.337Z,34.22
2023-05-05T12:37:10.161Z,33.79
2023-05-05T12:40:31.390Z,33.52
2023-05-05T12:43:34.591Z,33.79
2023-05-05T12:46:47.321Z,33.78
2023-05-05T12:49:53.511Z,34.30
2023-05-05T12:52:56.245Z,34.41
2023-05-05T12:55:59.209Z,35.86
2023-05-05T12:59:02.742Z,34.04
2023-05-05T13:02:05.274Z,34.18
2023-05-05T13:05:09.232Z,33.51
2023-05-05T13:08:12.379Z,33.75
2023-05-05T13:11:15.019Z,32.80
2023-05-05T13:14:17.711Z,32.65
2023-05-05T13:17:20.481Z,34.00
2023-05-05T13:20:23.057Z,33.52
2023-05-05T13:23:25.903Z,34.11
2023-05-05T13:26:28.868Z,34.40
2023-05-05T13:29:32.017Z,35.67
2023-05-05T13:32:38.744Z,35.56
2023-05-05T13:35:41.659Z,33.74
2023-05-05T13:38:45.339Z,32.98
2023-05-05T13:41:48.517Z,34.86
2023-05-05T13:44:51.419Z,34.70
2023-05-05T13:47:53.632Z,33.46
2023-05-05T13:50:56.340Z,34.63
2023-05-05T13:53:58.896Z,33.15
2023-05-05T13:57:01.771Z,35.29
2023-05-05T14:00:04.743Z,33.79
2023-05-05T14:03:07.557Z,34.91
2023-05-05T14:06:11.489Z,35.96
2023-05-05T14:09:14.285Z,34.32
2023-05-05T14:12:17.024Z,35.77
2023-05-05T14:15:20.774Z,35.37
2023-05-05T14:18:23.154Z,35.64
2023-05-05T14:21:25.475Z,33.57
2023-05-05T14:24:28.129Z,34.25
2023-05-05T14:27:30.498Z,35.17
2023-05-05T14:30:33.734Z,34.91
2023-05-05T14:33:36.922Z,34.95
2023-05-05T14:36:39.353Z,35.79
2023-05-05T14:39:42.447Z,36.59
2023-05-05T14:42:54.496Z,36.25
2023-05-05T14:45:58.499Z,34.27
2023-05-05T14:49:01.312Z,34.58
2023-05-05T14:52:05.931Z,35.85
2023-05-05T14:55:11.607Z,35.26
2023-05-05T14:58:14.594Z,35.95
2023-05-05T15:01:17.362Z,35.87
2023-05-05T15:04:20.618Z,36.41
2023-05-05T15:07:22.961Z,35.92
2023-05-05T15:10:25.623Z,36.00
2023-05-05T15:13:28.806Z,35.88
2023-05-05T15:16:32.654Z,36.55
2023-05-05T15:19:37.257Z,37.22
2023-05-05T15:22:39.625Z,36.17
2023-05-05T15:25:42.717Z,36.16
2023-05-05T15:28:45.112Z,36.46
2023-05-05T15:31:47.631Z,35.79
2023-05-05T15:34:50.913Z,36.17
2023-05-05T15:37:54.376Z,37.87
2023-05-05T15:40:57.176Z,35.97
2023-05-05T15:44:00.057Z,37.19
2023-05-05T15:47:02.290Z,37.46
2023-05-05T15:50:05.946Z,37.21
2023-05-05T15:53:08.990Z,37.24
2023-05-05T15:56:12.160Z,37.23
2023-05-05T15:59:15.552Z,38.07
2023-05-05T16:02:19.001Z,38.99
2023-05-05T16:05:23.080Z,38.76
2023-05-05T16:08:26.227Z,39.26
2023-05-05T16:11:29.210Z,38.56
2023-05-05T16:14:34.947Z,39.90
2023-05-05T16:17:37.768Z,38.89
2023-05-05T16:20:40.429Z,39.64
2023-05-05T16:23:43.267Z,39.03
2023-05-05T16:26:46.431Z,38.49
2023-05-05T16:29:49.235Z,38.91
2023-05-05T16:32:53.213Z,39.50
2023-05-05T16:35:56.588Z,39.21
2023-05-05T16:38:59.303Z,40.23
2023-05-05T16:42:03.355Z,41.43
2023-05-05T16:45:07.663Z,42.30
2023-05-05T16:48:10.927Z,43.04
2023-05-05T16:51:13.549Z,43.53
2023-05-05T16:54:16.753Z,42.42
2023-05-05T16:57:20.831Z,42.65
2023-05-05T17:00:23.726Z,43.02
2023-05-05T17:03:26.953Z,44.58
2023-05-05T17:06:33.476Z,44.96
2023-05-05T17:09:36.517Z,44.82
2023-05-05T17:12:38.940Z,46.65
2023-05-05T17:15:42.106Z,47.29
2023-05-05T17:18:44.983Z,47.41
2023-05-05T17:21:47.578Z,47.65
2023-05-05T17:24:50.141Z,49.08
2023-05-05T17:27:53.263Z,49.74
2023-05-05T17:31:00.123Z,48.94
2023-05-05T17:34:03.105Z,47.63
2023-05-05T17:37:06.234Z,47.58
2023-05-05T17:40:09.290Z,48.28
2023-05-05T17:43:11.667Z,48.58
2023-05-05T17:46:17.181Z,49.11
2023-05-05T17:49:21.948Z,51.07
2023-05-05T17:52:25.057Z,51.36
2023-05-05T17:55:28.417Z,53.74
2023-05-05T17:58:31.372Z,54.44
2023-05-05T18:01:34.046Z,55.94
2023-05-05T18:04:37.492Z,55.56
2023-05-05T18:07:40.037Z,57.43
2023-05-05T18:10:43.153Z,58.01
2023-05-05T18:13:46.154Z,60.64
2023-05-05T18:16:51.196Z,61.49
2023-05-05T18:19:53.758Z,63.61
2023-05-05T18:22:56.339Z,64.97
2023-05-05T18:25:59.167Z,66.50
2023-05-05T18:29:02.370Z,67.36
2023-05-05T18:32:06.730Z,67.92
2023-05-05T18:35:10.893Z,68.62
2023-05-05T18:38:18.335Z,69.29
2023-05-05T18:41:21.186Z,70.25
2023-05-05T18:44:23.644Z,72.09
2023-05-05T18:47:26.829Z,72.52
2023-05-05T18:50:30.056Z,73.19
2023-05-05T18:53:32.486Z,73.93
2023-05-05T18:56:35.696Z,75.13
2023-05-05T18:59:38.771Z,76.45
2023-05-05T19:02:42.241Z,76.53
2023-05-05T19:05:45.167Z,76.49
2023-05-05T19:08:48.143Z,77.21
2023-05-05T19:11:51.552Z,78.16
2023-05-05T19:14:54.089Z,78.39
2023-05-05T19:17:56.907Z,79.81
2023-05-05T19:20:59.430Z,80.56
2023-05-05T19:24:02.486Z,80.94
2023-05-05T19:27:05.601Z,81.15
2023-05-05T19:30:10.946Z,81.45
2023-05-05T19:33:13.838Z,82.68
2023-05-05T19:36:17.191Z,83.10
2023-05-05T19:39:20.715Z,85.29
2023-05-05T19:42:23.300Z,85.42
2023-05-05T19:45:25.897Z,85.18
2023-05-05T19:48:28.723Z,87.17
2023-05-05T19:51:32.391Z,87.24
2023-05-05T19:54:35.092Z,86.98
2023-05-05T19:57:38.110Z,87.01
2023-05-05T20:00:41.295Z,86.72
2023-05-05T20:03:44.809Z,86.72
2023-05-05T20:06:48.635Z,86.66
2023-05-05T20:09:51.211Z,88.10
2023-05-05T20:12:54.703Z,89.34
2023-05-05T20:15:57.355Z,89.33
2023-05-05T20:19:00.901Z,89.91
2023-05-05T20:22:04.799Z,89.90
2023-05-05T20:25:07.155Z,89.43
2023-05-05T20:28:09.513Z,89.50
2023-05-05T20:31:12.427Z,92.16
2023-05-05T20:34:15.578Z,92.69
2023-05-05T20:37:18.416Z,93.04
2023-05-05T20:40:22.807Z,93.50
2023-05-05T20:43:26.085Z,94.60
2023-05-05T20:46:30.048Z,94.21
2023-05-05T20:49:33.417Z,93.34
2023-05-05T20:52:37.642Z,94.52
2023-05-05T20:55:40.439Z,95.34
2023-05-05T20:58:43.410Z,96.54
2023-05-05T21:01:46.661Z,96.51
2023-05-05T21:04:51.138Z,97.12
2023-05-05T21:07:54.860Z,98.22
2023-05-05T21:10:57.440Z,98.61
2023-05-05T21:14:00.173Z,99.01
2023-05-05T21:17:03.033Z,97.59
2023-05-05T21:20:07.392Z,96.94
2023-05-05T21:23:10.032Z,97.46
2023-05-05T21:26:12.993Z,96.86
2023-05-05T21:29:16.918Z,97.71
2023-05-05T21:32:19.857Z,96.40
2023-05-05T21:35:22.608Z,97.05
2023-05-05T21:38:24.862Z,96.50
2023-05-05T21:41:27.227Z,95.99
2023-05-05T21:44:29.976Z,94.91
2023-05-05T21:47:32.910Z,94.75
2023-05-05T21:50:37.134Z,94.29
2023-05-05T21:53:41.450Z,93.78
2023-05-05T21:56:44.465Z,94.33
2023-05-05T21:59:47.564Z,95.07
2023-05-05T22:02:50.740Z,94.61
2023-05-05T22:05:53.770Z,93.95
2023-05-05T22:09:00.249Z,94.70
2023-05-05T22:12:03.290Z,95.41
2023-05-05T22:15:06.486Z,96.53
2023-05-05T22:18:10.156Z,97.38
2023-05-05T22:21:12.811Z,97.45
2023-05-05T22:24:15.577Z,98.34
2023-05-05T22:27:19.751Z,98.02
2023-05-05T22:30:22.661Z,98.82
2023-05-05T22:33:26.972Z,100.00
2023-05-05T22:36:30.642Z,99.71
2023-05-05T22:39:34.034Z,99.27
2023-05-05T22:42:37.217Z,99.47
2023-05-05T22:45:40.029Z,99.52
2023-05-05T22:48:42.732Z,100.00
2023-05-05T22:51:45.376Z,100.00
2023-05-05T22:54:48.873Z,100.00
2023-05-05T22:57:52.751Z,100.00
2023-05-05T23:00:55.322Z,100.00
2023-05-05T23:03:58.067Z,100.00
2023-05-05T23:07:01.532Z,100.00
2023-05-05T23:10:05.552Z,100.00
2023-05-05T23:13:09.688Z,100.00
2023-05-05T23:16:12.547Z,100.00
2023-05-05T23:19:15.261Z,100.00
2023-05-05T23:22:17.782Z,100.00
2023-05-05T23:25:20.094Z,100.00
2023-05-05T23:28:23.017Z,100.00
2023-05-05T23:31:26.467Z,100.00
2023-05-05T23:34:29.062Z,100.00
2023-05-05T23:37:31.585Z,100.00
2023-05-05T23:40:35.064Z,100.00
2023-05-05T23:43:37.517Z,100.00
2023-05-05T23:46:40.743Z,100.00
2023-05-05T23:49:43.948Z,100.00
2023-05-05T23:52:49.422Z,100.00
2023-05-05T23:55:52.797Z,100.00
2023-05-05T23:58:56.673Z,100.00
